createdAt,value
2018-09-25T00:01:56.863Z,7.17
2018-09-25T00:04:42.350Z,9.67
2018-09-25T00:07:28.295Z,8.63
2018-09-25T00:10:14.202Z,7.40
2018-09-25T00:12:59.977Z,7.80
2018-09-25T00:15:45.534Z,12.50
2018-09-25T00:18:31.136Z,10.97
2018-09-25T00:21:16.915Z,8.00
2018-09-25T00:24:02.562Z,8.03
2018-09-25T00:26:48.274Z,8.10
2018-09-25T00:29:33.690Z,6.00
2018-09-25T00:32:19.257Z,9.20
2018-09-25T00:35:04.957Z,12.53
2018-09-25T00:37:50.219Z,6.27
2018-09-25T00:40:35.824Z,7.67
2018-09-25T00:43:21.269Z,10.30
2018-09-25T00:46:06.802Z,9.80
2018-09-25T00:48:52.813Z,6.87
2018-09-25T00:51:38.318Z,7.20
2018-09-25T00:54:23.834Z,11.67
2018-09-25T00:57:09.201Z,8.53
2018-09-25T00:59:54.869Z,7.40
2018-09-25T01:02:40.684Z,9.23
2018-09-25T01:05:26.147Z,6.70
2018-09-25T01:08:11.950Z,9.27
2018-09-25T01:10:57.465Z,9.00
2018-09-25T01:13:43.178Z,13.80
2018-09-25T01:16:28.605Z,8.67
2018-09-25T01:19:14.346Z,7.37
2018-09-25T01:21:59.888Z,9.20
2018-09-25T01:24:45.549Z,9.37
2018-09-25T01:27:31.130Z,10.17
2018-09-25T01:30:16.837Z,10.13
2018-09-25T01:33:02.592Z,7.80
2018-09-25T01:35:48.355Z,6.00
2018-09-25T01:38:33.956Z,9.60
2018-09-25T01:41:19.573Z,5.27
2018-09-25T01:44:05.196Z,6.60
2018-09-25T01:46:50.571Z,9.37
2018-09-25T01:49:36.446Z,7.77
2018-09-25T01:52:22.182Z,11.83
2018-09-25T01:55:07.682Z,6.27
2018-09-25T01:57:53.422Z,9.93
2018-09-25T02:00:39.214Z,8.00
2018-09-25T02:03:24.847Z,7.43
2018-09-25T02:06:10.329Z,6.57
2018-09-25T02:08:55.781Z,5.37
2018-09-25T02:11:41.928Z,8.43
2018-09-25T02:14:27.385Z,6.03
2018-09-25T02:17:12.988Z,6.77
2018-09-25T02:19:58.541Z,9.77
2018-09-25T02:22:44.114Z,8.10
2018-09-25T02:25:29.941Z,7.70
2018-09-25T02:28:15.539Z,9.10
2018-09-25T02:31:01.128Z,7.67
2018-09-25T02:33:46.768Z,7.20
2018-09-25T02:36:32.718Z,9.90
2018-09-25T02:39:18.397Z,10.10
2018-09-25T02:42:04.012Z,9.83
2018-09-25T02:44:49.455Z,11.80
2018-09-25T02:47:35.032Z,10.57
2018-09-25T02:50:20.509Z,9.33
2018-09-25T02:53:06.252Z,9.13
2018-09-25T02:55:51.871Z,7.77
2018-09-25T02:58:37.448Z,8.27
2018-09-25T03:01:23.004Z,10.27
2018-09-25T03:04:08.697Z,8.90
2018-09-25T03:06:54.505Z,6.17
2018-09-25T03:09:40.195Z,6.27
2018-09-25T03:12:25.739Z,9.43
2018-09-25T03:15:11.779Z,12.27
2018-09-25T03:17:57.298Z,7.10
2018-09-25T03:20:43.003Z,8.17
2018-09-25T03:23:28.580Z,9.00
2018-09-25T03:26:14.367Z,9.37
2018-09-25T03:29:00.215Z,8.40
2018-09-25T03:31:45.973Z,7.97
2018-09-25T03:34:31.749Z,7.00
2018-09-25T03:37:17.101Z,9.83
2018-09-25T03:40:02.611Z,12.50
2018-09-25T03:42:48.326Z,9.67
2018-09-25T03:45:33.846Z,8.83
2018-09-25T03:48:19.493Z,7.43
2018-09-25T03:51:05.020Z,6.63
2018-09-25T03:53:50.464Z,7.50
2018-09-25T03:56:35.881Z,9.10
2018-09-25T03:59:21.605Z,8.40
2018-09-25T04:02:07.432Z,7.97
2018-09-25T04:04:53.251Z,6.83
2018-09-25T04:07:38.809Z,11.43
2018-09-25T04:10:24.570Z,12.47
2018-09-25T04:13:10.077Z,7.07
2018-09-25T04:15:55.915Z,6.73
2018-09-25T04:18:41.517Z,10.23
2018-09-25T04:21:27.070Z,6.50
2018-09-25T04:24:12.791Z,7.30
2018-09-25T04:26:58.271Z,6.07
2018-09-25T04:29:43.971Z,6.80
2018-09-25T04:32:29.400Z,8.73
2018-09-25T04:35:14.930Z,9.37
2018-09-25T04:38:00.903Z,11.27
2018-09-25T04:40:46.580Z,9.37
2018-09-25T04:43:32.136Z,8.60
2018-09-25T04:46:17.670Z,8.90
2018-09-25T04:49:03.335Z,12.50
2018-09-25T04:51:49.028Z,15.53
2018-09-25T04:54:34.475Z,7.43
2018-09-25T04:57:19.963Z,11.47
2018-09-25T05:00:05.501Z,10.53
2018-09-25T05:02:51.182Z,8.87
2018-09-25T05:05:37.067Z,7.17
2018-09-25T05:08:22.463Z,8.87
2018-09-25T05:11:08.298Z,8.00
2018-09-25T05:13:54.009Z,6.63
2018-09-25T05:16:39.822Z,8.00
2018-09-25T05:19:25.421Z,7.97
2018-09-25T05:22:10.808Z,7.87
2018-09-25T05:24:56.416Z,8.10
2018-09-25T05:27:41.915Z,8.03
2018-09-25T05:30:27.579Z,6.00
2018-09-25T05:33:13.537Z,10.40
2018-09-25T05:35:59.073Z,8.07
2018-09-25T05:38:44.711Z,8.93
2018-09-25T05:41:30.053Z,11.07
2018-09-25T05:44:15.580Z,7.47
2018-09-25T05:47:01.464Z,8.40
2018-09-25T05:49:46.939Z,11.63
2018-09-25T05:52:32.466Z,7.90
2018-09-25T05:55:18.142Z,7.80
2018-09-25T05:58:03.817Z,11.03
2018-09-25T06:00:49.731Z,8.77
2018-09-25T06:03:35.052Z,8.07
2018-09-25T06:06:20.569Z,13.13
2018-09-25T06:09:06.187Z,12.83
2018-09-25T06:11:51.626Z,12.60
2018-09-25T06:14:37.438Z,12.77
2018-09-25T06:17:22.963Z,12.00
2018-09-25T06:20:08.422Z,16.07
2018-09-25T06:22:54.011Z,10.10
2018-09-25T06:25:39.597Z,7.97
2018-09-25T06:28:25.311Z,10.10
2018-09-25T06:31:10.925Z,10.87
2018-09-25T06:33:56.604Z,14.50
2018-09-25T06:36:41.984Z,10.53
2018-09-25T06:39:27.277Z,9.67
2018-09-25T06:42:13.224Z,13.93
2018-09-25T06:44:58.442Z,10.70
2018-09-25T06:47:44.291Z,10.70
2018-09-25T06:50:29.866Z,13.83
2018-09-25T06:53:15.556Z,9.63
2018-09-25T06:56:01.648Z,12.83
2018-09-25T06:58:47.069Z,12.83
2018-09-25T07:01:32.802Z,9.37
2018-09-25T07:04:18.278Z,19.53
2018-09-25T07:07:03.545Z,10.50
2018-09-25T07:09:48.944Z,11.53
2018-09-25T07:12:34.279Z,9.70
2018-09-25T07:15:19.980Z,12.77
2018-09-25T07:18:05.702Z,11.87
2018-09-25T07:20:51.130Z,10.40
2018-09-25T07:23:36.689Z,10.17
2018-09-25T07:26:22.226Z,7.43
2018-09-25T07:29:07.947Z,8.67
2018-09-25T07:31:53.456Z,9.60
2018-09-25T07:34:38.899Z,9.73
2018-09-25T07:37:24.667Z,8.33
2018-09-25T07:40:10.082Z,7.03
2018-09-25T07:42:55.771Z,12.90
2018-09-25T07:45:41.148Z,12.40
2018-09-25T07:48:26.729Z,8.70
2018-09-25T07:51:12.182Z,8.20
2018-09-25T07:53:57.745Z,7.00
2018-09-25T07:56:43.475Z,9.40
2018-09-25T07:59:29.251Z,11.83
2018-09-25T08:02:15.073Z,9.73
2018-09-25T08:05:00.995Z,8.53
2018-09-25T08:07:46.483Z,6.70
2018-09-25T08:10:32.181Z,6.40
2018-09-25T08:13:17.919Z,6.50
2018-09-25T08:16:03.516Z,7.27
2018-09-25T08:18:49.049Z,7.77
2018-09-25T08:21:34.644Z,7.47
2018-09-25T08:24:20.202Z,7.23
2018-09-25T08:27:05.474Z,9.67
2018-09-25T08:29:51.272Z,10.30
2018-09-25T08:32:36.882Z,9.00
2018-09-25T08:35:22.376Z,9.27
2018-09-25T08:38:08.296Z,6.83
2018-09-25T08:40:53.831Z,11.67
2018-09-25T08:43:39.553Z,8.10
2018-09-25T08:46:25.102Z,7.93
2018-09-25T08:49:10.649Z,11.30
2018-09-25T08:51:56.503Z,8.23
2018-09-25T08:54:42.223Z,10.60
2018-09-25T08:57:27.546Z,11.77
2018-09-25T09:00:13.333Z,12.63
2018-09-25T09:02:58.939Z,12.83
2018-09-25T09:05:44.917Z,17.07
2018-09-25T09:08:30.443Z,15.97
2018-09-25T09:11:15.800Z,18.73
2018-09-25T09:14:01.397Z,16.83
2018-09-25T09:16:46.739Z,16.37
2018-09-25T09:19:32.533Z,29.10
2018-09-25T09:22:17.991Z,24.47
2018-09-25T09:25:03.736Z,22.60
2018-09-25T09:27:49.599Z,20.40
2018-09-25T09:30:35.367Z,23.40
2018-09-25T09:33:21.152Z,26.27
2018-09-25T09:36:06.965Z,22.07
2018-09-25T09:38:52.365Z,27.60
2018-09-25T09:41:38.320Z,31.93
2018-09-25T09:44:23.612Z,21.00
2018-09-25T09:47:09.382Z,28.23
2018-09-25T09:49:54.888Z,22.07
2018-09-25T09:52:40.729Z,17.20
2018-09-25T09:55:26.467Z,19.37
2018-09-25T09:58:11.838Z,10.27
2018-09-25T10:00:57.474Z,9.37
2018-09-25T10:03:42.987Z,10.27
2018-09-25T10:06:28.679Z,10.23
2018-09-25T10:09:14.265Z,7.53
2018-09-25T10:11:59.900Z,7.30
2018-09-25T10:14:45.293Z,9.23
2018-09-25T10:17:30.915Z,5.83
2018-09-25T10:20:16.646Z,8.23
2018-09-25T10:23:02.147Z,9.33
2018-09-25T10:25:47.701Z,14.33
2018-09-25T10:28:33.341Z,8.03
2018-09-25T10:31:18.998Z,6.67
2018-09-25T10:34:04.536Z,12.60
2018-09-25T10:36:49.892Z,7.40
2018-09-25T10:39:35.165Z,10.13
2018-09-25T10:42:20.831Z,7.53
2018-09-25T10:45:06.298Z,8.57
2018-09-25T10:47:51.679Z,7.50
2018-09-25T10:50:37.413Z,8.00
2018-09-25T10:53:22.814Z,5.30
2018-09-25T10:56:08.692Z,5.47
2018-09-25T10:58:53.871Z,10.20
2018-09-25T11:01:39.389Z,8.53
2018-09-25T11:04:24.684Z,6.73
2018-09-25T11:07:10.361Z,5.87
2018-09-25T11:09:56.239Z,5.47
2018-09-25T11:12:41.704Z,5.33
2018-09-25T11:15:27.306Z,9.23
2018-09-25T11:18:12.860Z,4.90
2018-09-25T11:20:58.288Z,6.67
2018-09-25T11:23:44.054Z,8.00
2018-09-25T11:26:29.702Z,7.13
2018-09-25T11:29:15.631Z,6.80
2018-09-25T11:32:01.023Z,5.67
2018-09-25T11:34:46.553Z,6.87
2018-09-25T11:37:32.277Z,7.77
2018-09-25T11:40:17.881Z,13.60
2018-09-25T11:43:03.503Z,7.57
2018-09-25T11:45:49.031Z,4.40
2018-09-25T11:48:34.911Z,7.43
2018-09-25T11:51:20.597Z,7.17
2018-09-25T11:54:06.391Z,6.90
2018-09-25T11:56:51.894Z,4.20
2018-09-25T11:59:37.462Z,10.53
2018-09-25T12:02:22.954Z,10.43
2018-09-25T12:05:08.569Z,5.70
2018-09-25T12:07:54.201Z,3.27
2018-09-25T12:10:40.106Z,5.63
2018-09-25T12:13:25.682Z,6.60
2018-09-25T12:16:11.415Z,6.50
2018-09-25T12:18:56.957Z,4.83
2018-09-25T12:21:42.483Z,7.63
2018-09-25T12:24:28.072Z,5.00
2018-09-25T12:27:13.758Z,8.13
2018-09-25T12:29:59.570Z,6.17
2018-09-25T12:32:45.408Z,5.10
2018-09-25T12:35:30.903Z,5.87
2018-09-25T12:38:16.796Z,4.97
2018-09-25T12:41:02.844Z,7.17
2018-09-25T12:43:48.518Z,4.30
2018-09-25T12:46:33.916Z,8.10
2018-09-25T12:49:19.423Z,8.23
2018-09-25T12:52:04.745Z,7.13
2018-09-25T12:54:50.296Z,5.83
2018-09-25T12:57:35.985Z,7.33
2018-09-25T13:00:21.716Z,4.87
2018-09-25T13:03:07.233Z,5.37
2018-09-25T13:05:52.894Z,5.60
2018-09-25T13:08:38.335Z,6.33
2018-09-25T13:11:23.873Z,6.40
2018-09-25T13:14:09.612Z,4.87
2018-09-25T13:16:55.055Z,4.97
2018-09-25T13:19:40.281Z,8.33
2018-09-25T13:22:26.090Z,4.67
2018-09-25T13:25:11.384Z,4.17
2018-09-25T13:27:57.229Z,5.53
2018-09-25T13:30:42.499Z,8.27
2018-09-25T13:33:28.429Z,4.33
2018-09-25T13:36:14.142Z,4.23
2018-09-25T13:38:59.764Z,7.67
2018-09-25T13:41:45.861Z,4.47
2018-09-25T13:44:31.233Z,6.77
2018-09-25T13:47:17.057Z,3.40
2018-09-25T13:50:02.975Z,3.60
2018-09-25T13:52:48.188Z,5.33
2018-09-25T13:55:33.836Z,6.17
2018-09-25T13:58:19.412Z,7.87
2018-09-25T14:01:05.165Z,7.53
2018-09-25T14:03:50.621Z,9.27
2018-09-25T14:06:36.060Z,7.73
2018-09-25T14:09:21.712Z,6.20
2018-09-25T14:12:07.238Z,6.47
2018-09-25T14:14:52.961Z,3.67
2018-09-25T14:17:38.463Z,4.03
2018-09-25T14:20:24.013Z,4.37
2018-09-25T14:23:09.691Z,5.87
2018-09-25T14:25:55.077Z,4.17
2018-09-25T14:28:40.543Z,5.67
2018-09-25T14:31:25.958Z,4.77
2018-09-25T14:34:11.443Z,6.63
2018-09-25T14:36:57.433Z,5.73
2018-09-25T14:39:42.725Z,6.37
2018-09-25T14:42:28.262Z,4.20
2018-09-25T14:45:14.014Z,7.87
2018-09-25T14:47:59.700Z,4.60
2018-09-25T14:50:45.314Z,8.67
2018-09-25T14:53:31.106Z,5.00
2018-09-25T14:56:16.929Z,4.50
2018-09-25T14:59:02.459Z,4.23
2018-09-25T15:01:47.901Z,7.93
2018-09-25T15:04:33.898Z,4.40
2018-09-25T15:07:19.658Z,5.07
2018-09-25T15:10:05.415Z,4.30
2018-09-25T15:12:51.211Z,4.40
2018-09-25T15:15:36.915Z,2.93
2018-09-25T15:18:22.530Z,4.28
2018-09-25T15:21:08.209Z,5.10
2018-09-25T15:23:53.652Z,9.17
2018-09-25T15:26:39.498Z,5.30
2018-09-25T15:29:25.130Z,6.60
2018-09-25T15:32:10.753Z,11.23
2018-09-25T15:34:56.383Z,5.20
2018-09-25T15:37:42.256Z,7.50
2018-09-25T15:40:27.806Z,6.50
2018-09-25T15:43:13.171Z,6.53
2018-09-25T15:45:59.053Z,5.10
2018-09-25T15:48:44.351Z,6.03
2018-09-25T15:51:29.913Z,7.97
2018-09-25T15:54:15.524Z,4.40
2018-09-25T15:57:01.264Z,7.20
2018-09-25T15:59:47.064Z,6.90
2018-09-25T16:02:32.808Z,9.90
2018-09-25T16:05:18.639Z,8.90
2018-09-25T16:08:04.374Z,6.03
2018-09-25T16:10:50.174Z,8.23
2018-09-25T16:13:35.876Z,9.70
2018-09-25T16:16:21.418Z,9.47
2018-09-25T16:19:07.078Z,11.67
2018-09-25T16:21:53.248Z,9.83
2018-09-25T16:24:38.741Z,11.27
2018-09-25T16:27:24.406Z,13.03
2018-09-25T16:30:10.173Z,7.87
2018-09-25T16:32:55.469Z,12.00
2018-09-25T16:35:41.472Z,12.97
2018-09-25T16:38:26.800Z,10.20
2018-09-25T16:41:12.660Z,7.23
2018-09-25T16:43:58.087Z,6.27
2018-09-25T16:49:29.296Z,7.73
2018-09-25T16:52:14.929Z,8.87
2018-09-25T16:55:00.230Z,11.20
2018-09-25T16:57:45.727Z,9.77
2018-09-25T17:00:31.432Z,12.70
2018-09-25T17:03:17.324Z,8.60
2018-09-25T17:06:02.823Z,6.67
2018-09-25T17:08:48.107Z,5.87
2018-09-25T17:11:33.520Z,9.53
2018-09-25T17:14:18.827Z,9.63
2018-09-25T17:17:04.337Z,6.47
2018-09-25T17:19:49.886Z,8.87
2018-09-25T17:22:35.448Z,12.50
2018-09-25T17:25:20.985Z,5.50
2018-09-25T17:28:06.592Z,8.00
2018-09-25T17:30:52.400Z,6.67
2018-09-25T17:33:38.413Z,8.13
2018-09-25T17:36:24.064Z,10.90
2018-09-25T17:39:09.707Z,7.87
2018-09-25T17:41:55.469Z,11.27
2018-09-25T17:44:41.064Z,9.43
2018-09-25T17:47:26.617Z,9.37
2018-09-25T17:50:12.197Z,9.07
2018-09-25T17:52:57.850Z,11.57
2018-09-25T17:55:43.298Z,7.97
2018-09-25T17:58:28.954Z,21.70
2018-09-25T18:01:14.576Z,17.27
2018-09-25T18:04:00.322Z,16.07
2018-09-25T18:06:45.722Z,8.73
2018-09-25T18:09:31.323Z,6.70
2018-09-25T18:12:17.107Z,7.10
2018-09-25T18:15:02.809Z,10.97
2018-09-25T18:17:48.632Z,7.03
2018-09-25T18:20:34.388Z,7.57
2018-09-25T18:23:20.157Z,6.00
2018-09-25T18:26:05.997Z,6.33
2018-09-25T18:28:51.507Z,7.40
2018-09-25T18:31:36.973Z,7.13
2018-09-25T18:34:22.439Z,14.40
2018-09-25T18:37:07.749Z,11.13
2018-09-25T18:39:53.415Z,12.40
2018-09-25T18:42:38.893Z,9.17
2018-09-25T18:45:24.746Z,11.53
2018-09-25T18:48:10.295Z,10.60
2018-09-25T18:50:55.792Z,12.93
2018-09-25T18:53:41.548Z,13.00
2018-09-25T18:56:27.054Z,13.53
2018-09-25T18:59:12.577Z,15.33
2018-09-25T19:01:58.080Z,17.13
2018-09-25T19:04:43.647Z,14.23
2018-09-25T19:07:29.351Z,15.40
2018-09-25T19:10:15.084Z,15.03
2018-09-25T19:13:00.899Z,18.33
2018-09-25T19:15:46.613Z,16.93
2018-09-25T19:18:32.400Z,17.83
2018-09-25T19:21:18.281Z,14.67
2018-09-25T19:24:03.854Z,17.00
2018-09-25T19:26:49.741Z,14.77
2018-09-25T19:29:35.299Z,14.50
2018-09-25T19:32:20.994Z,14.70
2018-09-25T19:35:06.858Z,14.80
2018-09-25T19:37:52.343Z,11.73
2018-09-25T19:40:37.996Z,14.37
2018-09-25T19:43:23.807Z,12.20
2018-09-25T19:46:09.565Z,12.17
2018-09-25T19:48:55.286Z,11.33
2018-09-25T19:51:40.793Z,11.80
2018-09-25T19:54:26.381Z,10.00
2018-09-25T19:57:12.144Z,8.90
2018-09-25T19:59:57.863Z,11.27
2018-09-25T20:02:43.463Z,14.50
2018-09-25T20:05:28.946Z,10.50
2018-09-25T20:08:14.720Z,9.60
2018-09-25T20:11:00.662Z,13.00
2018-09-25T20:13:46.079Z,8.23
2018-09-25T20:16:32.080Z,9.63
2018-09-25T20:19:17.567Z,10.17
2018-09-25T20:22:02.981Z,9.17
2018-09-25T20:24:48.575Z,8.83
2018-09-25T20:27:34.201Z,9.23
2018-09-25T20:30:19.931Z,10.37
2018-09-25T20:33:05.515Z,9.83
2018-09-25T20:35:50.996Z,12.83
2018-09-25T20:38:36.608Z,9.07
2018-09-25T20:41:22.029Z,8.00
2018-09-25T20:44:07.611Z,6.70
2018-09-25T20:46:53.370Z,9.23
2018-09-25T20:49:39.410Z,9.03
2018-09-25T20:52:25.524Z,7.57
2018-09-25T20:55:11.268Z,9.10
2018-09-25T20:57:56.813Z,7.10
2018-09-25T21:00:42.241Z,8.40
2018-09-25T21:03:27.789Z,7.23
2018-09-25T21:06:13.299Z,9.00
2018-09-25T21:08:58.958Z,10.60
2018-09-25T21:11:44.804Z,12.83
2018-09-25T21:14:30.320Z,10.67
2018-09-25T21:17:16.021Z,7.30
2018-09-25T21:20:01.949Z,6.87
2018-09-25T21:22:47.334Z,8.93
2018-09-25T21:25:33.033Z,7.47
2018-09-25T21:28:18.427Z,11.27
2018-09-25T21:31:04.051Z,6.73
2018-09-25T21:33:49.953Z,10.80
2018-09-25T21:36:35.480Z,9.13
2018-09-25T21:39:21.180Z,9.13
2018-09-25T21:42:06.899Z,10.63
2018-09-25T21:44:52.402Z,12.17
2018-09-25T21:47:38.131Z,9.37
2018-09-25T21:50:23.780Z,9.47
2018-09-25T21:53:09.731Z,11.03
2018-09-25T21:55:55.356Z,8.37
2018-09-25T21:58:40.960Z,10.57
2018-09-25T22:01:26.895Z,9.33
2018-09-25T22:04:12.467Z,12.40
2018-09-25T22:06:57.800Z,9.30
2018-09-25T22:09:43.579Z,8.33
2018-09-25T22:12:28.912Z,8.93
2018-09-25T22:15:14.513Z,12.67
2018-09-25T22:18:00.189Z,10.90
2018-09-25T22:20:45.625Z,11.80
2018-09-25T22:23:30.862Z,13.30
2018-09-25T22:26:16.354Z,12.33
2018-09-25T22:29:02.096Z,14.93
2018-09-25T22:31:47.765Z,17.20
2018-09-25T22:34:33.168Z,16.53
2018-09-25T22:37:18.533Z,14.27
2018-09-25T22:40:03.897Z,11.53
2018-09-25T22:42:49.505Z,14.40
2018-09-25T22:45:35.367Z,13.77
2018-09-25T22:48:21.055Z,17.47
2018-09-25T22:51:06.637Z,17.37
2018-09-25T22:53:52.309Z,16.10
2018-09-25T22:56:37.742Z,17.33
2018-09-25T22:59:23.359Z,15.33
2018-09-25T23:02:08.907Z,15.70
2018-09-25T23:04:54.612Z,15.00
2018-09-25T23:07:40.212Z,11.90
2018-09-25T23:10:25.826Z,12.77
2018-09-25T23:13:11.389Z,11.83
2018-09-25T23:15:57.277Z,12.23
2018-09-25T23:18:42.850Z,13.37
2018-09-25T23:21:28.581Z,13.37
2018-09-25T23:24:14.381Z,13.10
2018-09-25T23:26:59.959Z,15.57
2018-09-25T23:29:45.743Z,15.83
2018-09-25T23:32:31.390Z,13.13
2018-09-25T23:35:16.783Z,17.67
2018-09-25T23:38:02.796Z,15.97
2018-09-25T23:40:30.210Z,14.07
2018-09-25T23:42:57.644Z,13.87
2018-09-25T23:45:25.067Z,18.70
2018-09-25T23:47:52.495Z,13.70
2018-09-25T23:50:19.907Z,16.87
2018-09-25T23:52:47.334Z,17.23
2018-09-25T23:55:14.788Z,17.10
2018-09-25T23:57:42.194Z,22.53
